Seth D. — WDF4107 — position and weather

sailwx.info

Track history (hours):
 
Tides and Currents Weather Stations Pressure Air Temp Water Temp Dewpoint Dewpoint Depression Visibility Wind Speed Wind Dir Waves Ship Positions

Seth D.

Owner: C & J Marine Services, Inc., Berwick, LA. More information available from US FCC via Universal Licensing System and Coast Guard Vessel Documentation Center.

Last reported at 2018-Jun-24 08:10 UTC. Time now 2018-Jun-25 09:34 UTC.
Position N 29°33' W 090°25'.

Length 21 m; draft 3 m.

Type: Tug. MMSI: 367448060.

Date/timePositionNaut miles runAvg speedWind from/ knotsBaromVisibWave heightAir tempDewpointWater temp
2018-Jun-24 08:10N 29°33' W 090°25'1 4.2
2018-Jun-24 07:56N 29°33' W 090°26'2 4.2
2018-Jun-24 07:30N 29°33' W 090°28'2 4.3
2018-Jun-24 07:00N 29°34' W 090°30'2 4.1
2018-Jun-24 06:30N 29°34' W 090°33'2 3.9
2018-Jun-24 06:00N 29°34' W 090°35'2 3.8
2018-Jun-24 05:30N 29°35' W 090°37'2 4.0
2018-Jun-24 05:00N 29°36' W 090°39'2 3.7
2018-Jun-24 04:30N 29°36' W 090°41'1 2.3
2018-Jun-24 03:59N 29°37' W 090°42'2 3.1
2018-Jun-24 03:29N 29°35' W 090°43'1 2.8
2018-Jun-24 03:00N 29°34' W 090°43'2 3.3
2018-Jun-24 02:30N 29°33' W 090°45'0 0.1
2018-Jun-24 02:00N 29°33' W 090°45'1 1.0
2018-Jun-24 01:30N 29°33' W 090°45'2 3.4
2018-Jun-24 01:00N 29°32' W 090°47'3 5.0
2018-Jun-24 00:26N 29°32' W 090°50'59 3.3
2018-Jun-23 06:46N 29°51' W 091°55'1 4.0
2018-Jun-23 06:29N 29°51' W 091°56'2 3.7
2018-Jun-23 06:00N 29°50' W 091°58'2 3.8
2018-Jun-23 05:30N 29°50' W 091°60'2 3.6
2018-Jun-23 05:00N 29°49' W 092°02'2 3.4
2018-Jun-23 04:30N 29°48' W 092°04'2 3.5
2018-Jun-23 04:00N 29°48' W 092°06'2 3.5
2018-Jun-23 03:30N 29°47' W 092°08'2 3.9
2018-Jun-23 03:00N 29°47' W 092°10'2 3.9
2018-Jun-23 02:30N 29°47' W 092°12'1 2.0
2018-Jun-23 02:00N 29°47' W 092°13'1 2.5
2018-Jun-23 01:30N 29°48' W 092°14'0 1.0
2018-Jun-23 01:00N 29°48' W 092°15'2 3.8
2018-Jun-23 00:30N 29°49' W 092°17'2 3.6
2018-Jun-22 23:59N 29°50' W 092°18'2 3.6
2018-Jun-22 23:30N 29°51' W 092°20'40 3.3
2018-Jun-22 11:25N 29°56' W 093°07'2 3.6
2018-Jun-22 10:51N 29°56' W 093°09'1 3.4
2018-Jun-22 10:30N 29°57' W 093°10'2 3.1
2018-Jun-22 10:00N 29°58' W 093°11'2 3.7
2018-Jun-22 09:30N 29°59' W 093°13'2 3.4
2018-Jun-22 09:00N 30°01' W 093°14'2 3.1
2018-Jun-22 08:30N 30°02' W 093°15'2 3.2
2018-Jun-22 08:00N 30°03' W 093°16'2 3.7
2018-Jun-22 07:30N 30°05' W 093°17'1 2.2
2018-Jun-22 07:00N 30°05' W 093°18'1 1.6
2018-Jun-22 06:30N 30°06' W 093°18'0 0.7
2018-Jun-22 06:00N 30°06' W 093°18'0 0.0
2018-Jun-22 05:30N 30°06' W 093°18'0 0.0
2018-Jun-22 05:00N 30°06' W 093°18'0 0.0
2018-Jun-22 04:30N 30°06' W 093°18'0 0.0
2018-Jun-22 04:00N 30°06' W 093°18'0 0.0
2018-Jun-22 03:30N 30°06' W 093°18'0 0.0
2018-Jun-22 03:00N 30°06' W 093°18'0 0.0
2018-Jun-22 02:30N 30°06' W 093°18'0 0.0
2018-Jun-22 02:00N 30°06' W 093°18'0 0.0
2018-Jun-22 01:30N 30°06' W 093°18'0 0.0
2018-Jun-22 01:00N 30°06' W 093°18'0 0.0
2018-Jun-22 00:30N 30°06' W 093°18'0 0.0
2018-Jun-22 00:00N 30°06' W 093°18'0 0.0
2018-Jun-21 23:30N 30°06' W 093°18'0 0.0
2018-Jun-21 23:00N 30°06' W 093°18'0 0.0
2018-Jun-21 22:30N 30°06' W 093°18'0 0.0
2018-Jun-21 22:00N 30°06' W 093°18'0 0.0
2018-Jun-21 21:30N 30°06' W 093°18'0 0.0
2018-Jun-21 21:00N 30°06' W 093°18'0 0.0
2018-Jun-21 20:30N 30°06' W 093°18'0 0.0
2018-Jun-21 20:00N 30°06' W 093°18'0 0.0
2018-Jun-21 19:30N 30°06' W 093°18'0 0.0
2018-Jun-21 18:59N 30°06' W 093°18'0 0.0
2018-Jun-21 18:30N 30°06' W 093°18'0 0.0
2018-Jun-21 18:00N 30°06' W 093°18'0 0.0
2018-Jun-21 17:30N 30°06' W 093°18'0 0.0
2018-Jun-21 17:00N 30°06' W 093°18'0 0.0
2018-Jun-21 16:30N 30°06' W 093°18'0 0.0
2018-Jun-21 16:00N 30°06' W 093°18'0 0.0
2018-Jun-21 15:30N 30°06' W 093°18'0 0.0
2018-Jun-21 15:00N 30°06' W 093°18'0 0.0
2018-Jun-21 14:30N 30°06' W 093°18'0 0.2
2018-Jun-21 14:00N 30°06' W 093°18'2 4.2
2018-Jun-21 13:30N 30°05' W 093°20'2 4.0
2018-Jun-21 13:00N 30°04' W 093°22'1 2.4
2018-Jun-21 12:30N 30°04' W 093°23'1 2.0
2018-Jun-21 12:00N 30°04' W 093°24'0 0.9
2018-Jun-21 11:30N 30°04' W 093°25'0 0.7
2018-Jun-21 11:00N 30°04' W 093°25'2 4.3
2018-Jun-21 10:30N 30°04' W 093°28'2 4.1
2018-Jun-21 09:57N 30°04' W 093°30'2 4.3
2018-Jun-21 09:30N 30°04' W 093°32'2 4.3
2018-Jun-21 09:00N 30°04' W 093°35'2 4.0
2018-Jun-21 08:30N 30°03' W 093°37'2 4.4
2018-Jun-21 08:00N 30°04' W 093°40'2 4.6
2018-Jun-21 07:30N 30°03' W 093°42'2 4.5
2018-Jun-21 07:00N 30°02' W 093°44'2 4.7
2018-Jun-21 06:30N 30°00' W 093°46'2 4.7
2018-Jun-21 06:00N 29°59' W 093°49'2 4.7
2018-Jun-21 05:30N 29°58' W 093°51'3 5.1
2018-Jun-21 05:00N 29°56' W 093°52'3 5.3
2018-Jun-21 04:30N 29°54' W 093°54'3 5.3
2018-Jun-21 04:00N 29°52' W 093°56'3 5.2
2018-Jun-21 03:30N 29°49' W 093°58'2 3.5
2018-Jun-21 03:00N 29°49' W 093°60'2 3.9
2018-Jun-21 02:30N 29°47' W 094°01'2 3.8
2018-Jun-21 02:00N 29°46' W 094°03'2 3.8
2018-Jun-21 01:30N 29°45' W 094°05'2 3.8
2018-Jun-21 01:00N 29°44' W 094°06'2 3.8
2018-Jun-21 00:30N 29°42' W 094°08'2 3.8
2018-Jun-21 00:00N 29°41' W 094°10'2 3.7
2018-Jun-20 23:30N 29°41' W 094°12'2 3.2
2018-Jun-20 23:00N 29°40' W 094°14'2 3.4
2018-Jun-20 22:30N 29°39' W 094°15'9 3.1
2018-Jun-20 19:30N 29°36' W 094°25'20 4.0
2018-Jun-20 14:33N 29°25' W 094°44'1 3.3
2018-Jun-20 14:18N 29°24' W 094°45'1 4.5
2018-Jun-20 13:59N 29°23' W 094°46'2 4.5
2018-Jun-20 13:30N 29°22' W 094°48'3 5.1
2018-Jun-20 12:59N 29°24' W 094°49'13 5.7
2018-Jun-20 10:41N 29°36' W 094°57'1 5.7
2018-Jun-20 10:30N 29°37' W 094°57'3 5.5
2018-Jun-20 10:00N 29°39' W 094°58'3 5.3
2018-Jun-20 09:29N 29°42' W 094°60'1 0.2
2018-Jun-20 02:43N 29°42' W 095°01'2 4.6
2018-Jun-20 02:20N 29°42' W 094°59'2 4.6
2018-Jun-20 02:00N 29°40' W 094°59'2 4.9
2018-Jun-20 01:30N 29°38' W 094°58'3 5.0
2018-Jun-20 00:59N 29°36' W 094°56'15 2.5
2018-Jun-19 18:50N 29°24' W 094°45'13 0.7
2018-Jun-19 01:00N 29°31' W 094°31'3 1.0
2018-Jun-18 21:45N 29°33' W 094°28'1 4.3
2018-Jun-18 21:26N 29°34' W 094°27'2 4.6
2018-Jun-18 21:00N 29°34' W 094°25'2 3.8
2018-Jun-18 20:28N 29°36' W 094°24'2 3.6
2018-Jun-18 20:00N 29°36' W 094°22'2 4.4
2018-Jun-18 19:30N 29°37' W 094°20'2 3.6
2018-Jun-18 19:00N 29°38' W 094°18'2 3.2
2018-Jun-18 18:30N 29°39' W 094°16'2 3.1
2018-Jun-18 18:00N 29°40' W 094°15'2 4.1
2018-Jun-18 17:29N 29°41' W 094°13'2 4.1
2018-Jun-18 17:00N 29°41' W 094°11'2 3.6
2018-Jun-18 16:30N 29°42' W 094°09'2 3.9
2018-Jun-18 16:00N 29°43' W 094°07'2 3.8
2018-Jun-18 15:30N 29°44' W 094°05'2 3.9
2018-Jun-18 15:00N 29°46' W 094°04'2 4.0
2018-Jun-18 14:30N 29°47' W 094°02'2 3.7
2018-Jun-18 14:00N 29°48' W 094°00'2 3.6
2018-Jun-18 13:30N 29°49' W 093°59'2 3.8
2018-Jun-18 13:00N 29°51' W 093°57'2 4.5
2018-Jun-18 12:30N 29°52' W 093°56'3 5.2
2018-Jun-18 12:00N 29°54' W 093°54'3 5.3
2018-Jun-18 11:30N 29°57' W 093°52'2 4.5
2018-Jun-18 11:00N 29°58' W 093°51'2 4.8
2018-Jun-18 10:30N 29°59' W 093°48'3 5.4
2018-Jun-18 10:00N 30°01' W 093°45'2 4.9
2018-Jun-18 09:30N 30°03' W 093°44'2 3.9
2018-Jun-18 08:59N 30°04' W 093°42'2 3.9
2018-Jun-18 08:29N 30°04' W 093°39'2 3.7
2018-Jun-18 08:00N 30°04' W 093°37'2 4.1
2018-Jun-18 07:30N 30°04' W 093°35'2 4.1
2018-Jun-18 07:00N 30°04' W 093°32'2 4.4
2018-Jun-18 06:30N 30°04' W 093°30'2 4.2
2018-Jun-18 06:00N 30°04' W 093°28'2 3.6
2018-Jun-18 05:30N 30°04' W 093°25'1 2.5
2018-Jun-18 05:00N 30°04' W 093°24'2 3.4
2018-Jun-18 04:29N 30°04' W 093°22'2 3.3
2018-Jun-18 04:00N 30°04' W 093°20'2 4.0
2018-Jun-18 03:30N 30°06' W 093°19'1 2.5
2018-Jun-18 03:00N 30°05' W 093°18'0 0.7
2018-Jun-18 02:30N 30°05' W 093°17'1 2.5
2018-Jun-18 02:00N 30°04' W 093°16'1 1.9
2018-Jun-18 01:30N 30°03' W 093°16'1 1.9
2018-Jun-18 01:00N 30°02' W 093°16'1 2.9
2018-Jun-18 00:30N 30°02' W 093°14'0 0.0
2018-Jun-18 00:00N 30°02' W 093°14'0 0.0
2018-Jun-17 23:30N 30°02' W 093°14'0 0.0
2018-Jun-17 23:00N 30°02' W 093°14'0 0.0
2018-Jun-17 22:30N 30°02' W 093°14'0 0.0
2018-Jun-17 22:00N 30°02' W 093°14'0 0.2
2018-Jun-17 21:30N 30°02' W 093°14'0 0.2
2018-Jun-17 21:00N 30°02' W 093°14'0 0.0
2018-Jun-17 20:30N 30°02' W 093°14'0 0.0
2018-Jun-17 20:00N 30°02' W 093°14'0 0.0
2018-Jun-17 19:30N 30°02' W 093°14'0 0.0
2018-Jun-17 19:00N 30°02' W 093°14'0 0.0
2018-Jun-17 18:30N 30°02' W 093°14'0 0.0
2018-Jun-17 18:00N 30°02' W 093°14'0 0.0
2018-Jun-17 17:30N 30°02' W 093°14'0 0.0
2018-Jun-17 17:00N 30°02' W 093°14'0 0.1
2018-Jun-17 16:30N 30°02' W 093°14'0 0.6
2018-Jun-17 16:00N 30°01' W 093°14'1 2.9
2018-Jun-17 15:30N 30°00' W 093°13'2 3.5
2018-Jun-17 15:00N 29°59' W 093°12'3 3.4
2018-Jun-17 14:02N 29°56' W 093°10'0 3.3
2018-Jun-17 14:00N 29°56' W 093°10'2 3.0
2018-Jun-17 13:30N 29°56' W 093°08'2 3.2
2018-Jun-17 12:59N 29°56' W 093°06'1 2.6
2018-Jun-17 12:30N 29°56' W 093°04'35 2.3
2018-Jun-16 21:47N 29°53' W 092°25'2 2.2
2018-Jun-16 20:52N 29°52' W 092°23'2 2.4
2018-Jun-16 20:14N 29°51' W 092°22'1 3.0
2018-Jun-16 20:00N 29°51' W 092°21'1 1.3
2018-Jun-16 19:30N 29°51' W 092°20'0 0.2
2018-Jun-16 19:00N 29°51' W 092°20'1 1.4
2018-Jun-16 18:30N 29°50' W 092°19'1 2.7
2018-Jun-16 18:00N 29°50' W 092°18'1 2.8
2018-Jun-16 17:30N 29°49' W 092°17'1 3.0
2018-Jun-16 17:00N 29°48' W 092°15'2 3.3
2018-Jun-16 16:30N 29°48' W 092°14'1 2.5
2018-Jun-16 16:00N 29°47' W 092°12'1 1.6
2018-Jun-16 15:30N 29°47' W 092°11'1 1.0
2018-Jun-16 15:00N 29°47' W 092°11'0 0.0
2018-Jun-16 14:30N 29°47' W 092°11'0 0.0
2018-Jun-16 14:00N 29°47' W 092°11'0 0.0
2018-Jun-16 13:30N 29°47' W 092°11'0 0.0
2018-Jun-16 13:00N 29°47' W 092°11'0 0.0
2018-Jun-16 12:30N 29°47' W 092°11'0 0.0
2018-Jun-16 12:00N 29°47' W 092°11'0 1.0
2018-Jun-16 11:30N 29°47' W 092°10'1 3.0
2018-Jun-16 11:00N 29°47' W 092°09'2 3.6
2018-Jun-16 10:30N 29°48' W 092°07'2 3.5
2018-Jun-16 10:00N 29°48' W 092°05'2 3.2
2018-Jun-16 09:30N 29°49' W 092°03'1 2.3
2018-Jun-16 08:59N 29°49' W 092°02'2 2.9
2018-Jun-16 08:25N 29°50' W 092°00'  
Track history (hours):
 
Tides and Currents Weather Stations Pressure Air Temp Water Temp Dewpoint Dewpoint Depression Visibility Wind Speed Wind Dir Waves Ship Positions

Seth D.

Owner: C & J Marine Services, Inc., Berwick, LA. More information available from US FCC via Universal Licensing System and Coast Guard Vessel Documentation Center.

Last reported at 2018-Jun-24 08:10 UTC. Time now 2018-Jun-25 09:34 UTC.
Position N 29°33' W 090°25'.

Length 21 m; draft 3 m.

Type: Tug. MMSI: 367448060.

Date/timePositionNaut miles runAvg speedWind from/ knotsBaromVisibWave heightAir tempDewpointWater temp
2018-Jun-24 08:10N 29°33' W 090°25'1 4.2
2018-Jun-24 07:56N 29°33' W 090°26'2 4.2
2018-Jun-24 07:30N 29°33' W 090°28'2 4.3
2018-Jun-24 07:00N 29°34' W 090°30'2 4.1
2018-Jun-24 06:30N 29°34' W 090°33'2 3.9
2018-Jun-24 06:00N 29°34' W 090°35'2 3.8
2018-Jun-24 05:30N 29°35' W 090°37'2 4.0
2018-Jun-24 05:00N 29°36' W 090°39'2 3.7
2018-Jun-24 04:30N 29°36' W 090°41'1 2.3
2018-Jun-24 03:59N 29°37' W 090°42'2 3.1
2018-Jun-24 03:29N 29°35' W 090°43'1 2.8
2018-Jun-24 03:00N 29°34' W 090°43'2 3.3
2018-Jun-24 02:30N 29°33' W 090°45'0 0.1
2018-Jun-24 02:00N 29°33' W 090°45'1 1.0
2018-Jun-24 01:30N 29°33' W 090°45'2 3.4
2018-Jun-24 01:00N 29°32' W 090°47'3 5.0
2018-Jun-24 00:26N 29°32' W 090°50'59 3.3
2018-Jun-23 06:46N 29°51' W 091°55'1 4.0
2018-Jun-23 06:29N 29°51' W 091°56'2 3.7
2018-Jun-23 06:00N 29°50' W 091°58'2 3.8
2018-Jun-23 05:30N 29°50' W 091°60'2 3.6
2018-Jun-23 05:00N 29°49' W 092°02'2 3.4
2018-Jun-23 04:30N 29°48' W 092°04'2 3.5
2018-Jun-23 04:00N 29°48' W 092°06'2 3.5
2018-Jun-23 03:30N 29°47' W 092°08'2 3.9
2018-Jun-23 03:00N 29°47' W 092°10'2 3.9
2018-Jun-23 02:30N 29°47' W 092°12'1 2.0
2018-Jun-23 02:00N 29°47' W 092°13'1 2.5
2018-Jun-23 01:30N 29°48' W 092°14'0 1.0
2018-Jun-23 01:00N 29°48' W 092°15'2 3.8
2018-Jun-23 00:30N 29°49' W 092°17'2 3.6
2018-Jun-22 23:59N 29°50' W 092°18'2 3.6
2018-Jun-22 23:30N 29°51' W 092°20'40 3.3
2018-Jun-22 11:25N 29°56' W 093°07'2 3.6
2018-Jun-22 10:51N 29°56' W 093°09'1 3.4
2018-Jun-22 10:30N 29°57' W 093°10'2 3.1
2018-Jun-22 10:00N 29°58' W 093°11'2 3.7
2018-Jun-22 09:30N 29°59' W 093°13'2 3.4
2018-Jun-22 09:00N 30°01' W 093°14'2 3.1
2018-Jun-22 08:30N 30°02' W 093°15'2 3.2
2018-Jun-22 08:00N 30°03' W 093°16'2 3.7
2018-Jun-22 07:30N 30°05' W 093°17'1 2.2
2018-Jun-22 07:00N 30°05' W 093°18'1 1.6
2018-Jun-22 06:30N 30°06' W 093°18'0 0.7
2018-Jun-22 06:00N 30°06' W 093°18'0 0.0
2018-Jun-22 05:30N 30°06' W 093°18'0 0.0
2018-Jun-22 05:00N 30°06' W 093°18'0 0.0
2018-Jun-22 04:30N 30°06' W 093°18'0 0.0
2018-Jun-22 04:00N 30°06' W 093°18'0 0.0
2018-Jun-22 03:30N 30°06' W 093°18'0 0.0
2018-Jun-22 03:00N 30°06' W 093°18'0 0.0
2018-Jun-22 02:30N 30°06' W 093°18'0 0.0
2018-Jun-22 02:00N 30°06' W 093°18'0 0.0
2018-Jun-22 01:30N 30°06' W 093°18'0 0.0
2018-Jun-22 01:00N 30°06' W 093°18'0 0.0
2018-Jun-22 00:30N 30°06' W 093°18'0 0.0
2018-Jun-22 00:00N 30°06' W 093°18'0 0.0
2018-Jun-21 23:30N 30°06' W 093°18'0 0.0
2018-Jun-21 23:00N 30°06' W 093°18'0 0.0
2018-Jun-21 22:30N 30°06' W 093°18'0 0.0
2018-Jun-21 22:00N 30°06' W 093°18'0 0.0
2018-Jun-21 21:30N 30°06' W 093°18'0 0.0
2018-Jun-21 21:00N 30°06' W 093°18'0 0.0
2018-Jun-21 20:30N 30°06' W 093°18'0 0.0
2018-Jun-21 20:00N 30°06' W 093°18'0 0.0
2018-Jun-21 19:30N 30°06' W 093°18'0 0.0
2018-Jun-21 18:59N 30°06' W 093°18'0 0.0
2018-Jun-21 18:30N 30°06' W 093°18'0 0.0
2018-Jun-21 18:00N 30°06' W 093°18'0 0.0
2018-Jun-21 17:30N 30°06' W 093°18'0 0.0
2018-Jun-21 17:00N 30°06' W 093°18'0 0.0
2018-Jun-21 16:30N 30°06' W 093°18'0 0.0
2018-Jun-21 16:00N 30°06' W 093°18'0 0.0
2018-Jun-21 15:30N 30°06' W 093°18'0 0.0
2018-Jun-21 15:00N 30°06' W 093°18'0 0.0
2018-Jun-21 14:30N 30°06' W 093°18'0 0.2
2018-Jun-21 14:00N 30°06' W 093°18'2 4.2
2018-Jun-21 13:30N 30°05' W 093°20'2 4.0
2018-Jun-21 13:00N 30°04' W 093°22'1 2.4
2018-Jun-21 12:30N 30°04' W 093°23'1 2.0
2018-Jun-21 12:00N 30°04' W 093°24'0 0.9
2018-Jun-21 11:30N 30°04' W 093°25'0 0.7
2018-Jun-21 11:00N 30°04' W 093°25'2 4.3
2018-Jun-21 10:30N 30°04' W 093°28'2 4.1
2018-Jun-21 09:57N 30°04' W 093°30'2 4.3
2018-Jun-21 09:30N 30°04' W 093°32'2 4.3
2018-Jun-21 09:00N 30°04' W 093°35'2 4.0
2018-Jun-21 08:30N 30°03' W 093°37'2 4.4
2018-Jun-21 08:00N 30°04' W 093°40'2 4.6
2018-Jun-21 07:30N 30°03' W 093°42'2 4.5
2018-Jun-21 07:00N 30°02' W 093°44'2 4.7
2018-Jun-21 06:30N 30°00' W 093°46'2 4.7
2018-Jun-21 06:00N 29°59' W 093°49'2 4.7
2018-Jun-21 05:30N 29°58' W 093°51'3 5.1
2018-Jun-21 05:00N 29°56' W 093°52'3 5.3
2018-Jun-21 04:30N 29°54' W 093°54'3 5.3
2018-Jun-21 04:00N 29°52' W 093°56'3 5.2
2018-Jun-21 03:30N 29°49' W 093°58'2 3.5
2018-Jun-21 03:00N 29°49' W 093°60'2 3.9
2018-Jun-21 02:30N 29°47' W 094°01'2 3.8
2018-Jun-21 02:00N 29°46' W 094°03'2 3.8
2018-Jun-21 01:30N 29°45' W 094°05'2 3.8
2018-Jun-21 01:00N 29°44' W 094°06'2 3.8
2018-Jun-21 00:30N 29°42' W 094°08'2 3.8
2018-Jun-21 00:00N 29°41' W 094°10'2 3.7
2018-Jun-20 23:30N 29°41' W 094°12'2 3.2
2018-Jun-20 23:00N 29°40' W 094°14'2 3.4
2018-Jun-20 22:30N 29°39' W 094°15'9 3.1
2018-Jun-20 19:30N 29°36' W 094°25'20 4.0
2018-Jun-20 14:33N 29°25' W 094°44'1 3.3
2018-Jun-20 14:18N 29°24' W 094°45'1 4.5
2018-Jun-20 13:59N 29°23' W 094°46'2 4.5
2018-Jun-20 13:30N 29°22' W 094°48'3 5.1
2018-Jun-20 12:59N 29°24' W 094°49'13 5.7
2018-Jun-20 10:41N 29°36' W 094°57'1 5.7
2018-Jun-20 10:30N 29°37' W 094°57'3 5.5
2018-Jun-20 10:00N 29°39' W 094°58'3 5.3
2018-Jun-20 09:29N 29°42' W 094°60'1 0.2
2018-Jun-20 02:43N 29°42' W 095°01'2 4.6
2018-Jun-20 02:20N 29°42' W 094°59'2 4.6
2018-Jun-20 02:00N 29°40' W 094°59'2 4.9
2018-Jun-20 01:30N 29°38' W 094°58'3 5.0
2018-Jun-20 00:59N 29°36' W 094°56'15 2.5
2018-Jun-19 18:50N 29°24' W 094°45'13 0.7
2018-Jun-19 01:00N 29°31' W 094°31'3 1.0
2018-Jun-18 21:45N 29°33' W 094°28'1 4.3
2018-Jun-18 21:26N 29°34' W 094°27'2 4.6
2018-Jun-18 21:00N 29°34' W 094°25'2 3.8
2018-Jun-18 20:28N 29°36' W 094°24'2 3.6
2018-Jun-18 20:00N 29°36' W 094°22'2 4.4
2018-Jun-18 19:30N 29°37' W 094°20'2 3.6
2018-Jun-18 19:00N 29°38' W 094°18'2 3.2
2018-Jun-18 18:30N 29°39' W 094°16'2 3.1
2018-Jun-18 18:00N 29°40' W 094°15'2 4.1
2018-Jun-18 17:29N 29°41' W 094°13'2 4.1
2018-Jun-18 17:00N 29°41' W 094°11'2 3.6
2018-Jun-18 16:30N 29°42' W 094°09'2 3.9
2018-Jun-18 16:00N 29°43' W 094°07'2 3.8
2018-Jun-18 15:30N 29°44' W 094°05'2 3.9
2018-Jun-18 15:00N 29°46' W 094°04'2 4.0
2018-Jun-18 14:30N 29°47' W 094°02'2 3.7
2018-Jun-18 14:00N 29°48' W 094°00'2 3.6
2018-Jun-18 13:30N 29°49' W 093°59'2 3.8
2018-Jun-18 13:00N 29°51' W 093°57'2 4.5
2018-Jun-18 12:30N 29°52' W 093°56'3 5.2
2018-Jun-18 12:00N 29°54' W 093°54'3 5.3
2018-Jun-18 11:30N 29°57' W 093°52'2 4.5
2018-Jun-18 11:00N 29°58' W 093°51'2 4.8
2018-Jun-18 10:30N 29°59' W 093°48'3 5.4
2018-Jun-18 10:00N 30°01' W 093°45'2 4.9
2018-Jun-18 09:30N 30°03' W 093°44'2 3.9
2018-Jun-18 08:59N 30°04' W 093°42'2 3.9
2018-Jun-18 08:29N 30°04' W 093°39'2 3.7
2018-Jun-18 08:00N 30°04' W 093°37'2 4.1
2018-Jun-18 07:30N 30°04' W 093°35'2 4.1
2018-Jun-18 07:00N 30°04' W 093°32'2 4.4
2018-Jun-18 06:30N 30°04' W 093°30'2 4.2
2018-Jun-18 06:00N 30°04' W 093°28'2 3.6
2018-Jun-18 05:30N 30°04' W 093°25'1 2.5
2018-Jun-18 05:00N 30°04' W 093°24'2 3.4
2018-Jun-18 04:29N 30°04' W 093°22'2 3.3
2018-Jun-18 04:00N 30°04' W 093°20'2 4.0
2018-Jun-18 03:30N 30°06' W 093°19'1 2.5
2018-Jun-18 03:00N 30°05' W 093°18'0 0.7
2018-Jun-18 02:30N 30°05' W 093°17'1 2.5
2018-Jun-18 02:00N 30°04' W 093°16'1 1.9
2018-Jun-18 01:30N 30°03' W 093°16'1 1.9
2018-Jun-18 01:00N 30°02' W 093°16'1 2.9
2018-Jun-18 00:30N 30°02' W 093°14'0 0.0
2018-Jun-18 00:00N 30°02' W 093°14'0 0.0
2018-Jun-17 23:30N 30°02' W 093°14'0 0.0
2018-Jun-17 23:00N 30°02' W 093°14'0 0.0
2018-Jun-17 22:30N 30°02' W 093°14'0 0.0
2018-Jun-17 22:00N 30°02' W 093°14'0 0.2
2018-Jun-17 21:30N 30°02' W 093°14'0 0.2
2018-Jun-17 21:00N 30°02' W 093°14'0 0.0
2018-Jun-17 20:30N 30°02' W 093°14'0 0.0
2018-Jun-17 20:00N 30°02' W 093°14'0 0.0
2018-Jun-17 19:30N 30°02' W 093°14'0 0.0
2018-Jun-17 19:00N 30°02' W 093°14'0 0.0
2018-Jun-17 18:30N 30°02' W 093°14'0 0.0
2018-Jun-17 18:00N 30°02' W 093°14'0 0.0
2018-Jun-17 17:30N 30°02' W 093°14'0 0.0
2018-Jun-17 17:00N 30°02' W 093°14'0 0.1
2018-Jun-17 16:30N 30°02' W 093°14'0 0.6
2018-Jun-17 16:00N 30°01' W 093°14'1 2.9
2018-Jun-17 15:30N 30°00' W 093°13'2 3.5
2018-Jun-17 15:00N 29°59' W 093°12'3 3.4
2018-Jun-17 14:02N 29°56' W 093°10'0 3.3
2018-Jun-17 14:00N 29°56' W 093°10'2 3.0
2018-Jun-17 13:30N 29°56' W 093°08'2 3.2
2018-Jun-17 12:59N 29°56' W 093°06'1 2.6
2018-Jun-17 12:30N 29°56' W 093°04'35 2.3
2018-Jun-16 21:47N 29°53' W 092°25'2 2.2
2018-Jun-16 20:52N 29°52' W 092°23'2 2.4
2018-Jun-16 20:14N 29°51' W 092°22'1 3.0
2018-Jun-16 20:00N 29°51' W 092°21'1 1.3
2018-Jun-16 19:30N 29°51' W 092°20'0 0.2
2018-Jun-16 19:00N 29°51' W 092°20'1 1.4
2018-Jun-16 18:30N 29°50' W 092°19'1 2.7
2018-Jun-16 18:00N 29°50' W 092°18'1 2.8
2018-Jun-16 17:30N 29°49' W 092°17'1 3.0
2018-Jun-16 17:00N 29°48' W 092°15'2 3.3
2018-Jun-16 16:30N 29°48' W 092°14'1 2.5
2018-Jun-16 16:00N 29°47' W 092°12'1 1.6
2018-Jun-16 15:30N 29°47' W 092°11'1 1.0
2018-Jun-16 15:00N 29°47' W 092°11'0 0.0
2018-Jun-16 14:30N 29°47' W 092°11'0 0.0
2018-Jun-16 14:00N 29°47' W 092°11'0 0.0
2018-Jun-16 13:30N 29°47' W 092°11'0 0.0
2018-Jun-16 13:00N 29°47' W 092°11'0 0.0
2018-Jun-16 12:30N 29°47' W 092°11'0 0.0
2018-Jun-16 12:00N 29°47' W 092°11'0 1.0
2018-Jun-16 11:30N 29°47' W 092°10'1 3.0
2018-Jun-16 11:00N 29°47' W 092°09'2 3.6
2018-Jun-16 10:30N 29°48' W 092°07'2 3.5
2018-Jun-16 10:00N 29°48' W 092°05'2 3.2
2018-Jun-16 09:30N 29°49' W 092°03'1 2.3
2018-Jun-16 08:59N 29°49' W 092°02'2 2.9
2018-Jun-16 08:25N 29°50' W 092°00'  

Dump ship's entire track history